KBIV

Details ICAO KBIV (BIV)
Name TULIP CITY
Region United States
Timezone America/Detroit (UTC-5.0)
Plans Departing 6
Arriving 2
Stats Elevation 698 ft / 213 m (AMSL)
Location 42.742846° -86.107351°
Runways 1
Magnetic Variation 5.285° W
Sunrise 2017-12-14 13:08:46 UTC / 2017-12-14 08:08:46 Local
Sunset 2017-12-14 22:12:28 UTC / 2017-12-14 17:12:28 Local
Advertisement - Login to hide

Runways

ID Width Length Bearing (true) Bearing (mag) Surface Threshold Offset Overrun Length
08 100 ft / 30 m 6,249 ft / 1,905 m 79.67° 84.95° Asphalt 1,840 ft / 561 m 0 ft / 0 m
26 100 ft / 30 m 6,249 ft / 1,905 m 259.68° 264.96° Asphalt 0 ft / 0 m 0 ft / 0 m

Map

Weather


0- 5 10 15 20 25 30 35+ Temperature / ° C

Clouds and Precipitation
Forecast for 2017-12-15 00:00 UTC. Updated 2 hours ago

Ground ~20,000 ft ~40,000 ft Winds

METAR

KBIV 142053Z AUTO 18006KT 5SM -SN BKN020 BKN029 OVC034 M06/M09 A3002 RMK AO2 SLP180 P0000 60000 T10561089 58002

TAF

Not found

Frequencies

Recorded 119.02 MHz ASOS
Clearance 123.95 MHz MUSKEGON CLNC DEL
Unicom 123.05 MHz CTAF/UNICOM
Approach 119.80 MHz MUSKEGON APP/DEP
Warning: Do not use this data for real-world aviation or navigation. No guarantee of current accuracy is given.